sensor_id;sensor_type;location;lat;lon;timestamp;P1;durP1;ratioP1;P2;durP2;ratioP2
11524;SDS011;5819;49.648;8.330;2022-08-18T00:02:14;6.72;;;6.13;;
11524;SDS011;5819;49.648;8.330;2022-08-18T00:04:46;8.75;;;5.93;;
11524;SDS011;5819;49.648;8.330;2022-08-18T00:07:18;6.68;;;5.70;;
11524;SDS011;5819;49.648;8.330;2022-08-18T00:09:49;6.88;;;6.22;;
11524;SDS011;5819;49.648;8.330;2022-08-18T00:12:20;6.90;;;6.32;;
11524;SDS011;5819;49.648;8.330;2022-08-18T00:14:50;9.18;;;6.75;;
11524;SDS011;5819;49.648;8.330;2022-08-18T00:17:20;7.15;;;6.45;;
11524;SDS011;5819;49.648;8.330;2022-08-18T00:19:49;7.57;;;6.95;;
11524;SDS011;5819;49.648;8.330;2022-08-18T00:22:18;8.45;;;6.45;;
11524;SDS011;5819;49.648;8.330;2022-08-18T00:24:50;7.25;;;6.50;;
11524;SDS011;5819;49.648;8.330;2022-08-18T00:27:22;7.10;;;6.32;;
11524;SDS011;5819;49.648;8.330;2022-08-18T00:29:54;7.20;;;6.50;;
11524;SDS011;5819;49.648;8.330;2022-08-18T00:32:25;9.48;;;7.18;;
11524;SDS011;5819;49.648;8.330;2022-08-18T00:34:54;7.25;;;6.25;;
11524;SDS011;5819;49.648;8.330;2022-08-18T00:37:23;13.00;;;6.90;;
11524;SDS011;5819;49.648;8.330;2022-08-18T00:39:51;7.40;;;6.00;;
11524;SDS011;5819;49.648;8.330;2022-08-18T00:42:23;6.72;;;5.95;;
11524;SDS011;5819;49.648;8.330;2022-08-18T00:44:58;7.63;;;6.82;;
11524;SDS011;5819;49.648;8.330;2022-08-18T00:47:27;7.60;;;6.90;;
11524;SDS011;5819;49.648;8.330;2022-08-18T00:50:09;7.40;;;6.63;;
11524;SDS011;5819;49.648;8.330;2022-08-18T00:52:41;7.03;;;6.43;;
11524;SDS011;5819;49.648;8.330;2022-08-18T00:55:15;6.93;;;6.32;;
11524;SDS011;5819;49.648;8.330;2022-08-18T00:57:46;10.05;;;6.88;;
11524;SDS011;5819;49.648;8.330;2022-08-18T01:00:17;8.20;;;7.35;;
11524;SDS011;5819;49.648;8.330;2022-08-18T01:02:47;7.88;;;7.18;;
11524;SDS011;5819;49.648;8.330;2022-08-18T01:05:21;8.55;;;7.05;;
11524;SDS011;5819;49.648;8.330;2022-08-18T01:07:55;7.95;;;7.15;;
11524;SDS011;5819;49.648;8.330;2022-08-18T01:10:24;8.57;;;7.22;;
11524;SDS011;5819;49.648;8.330;2022-08-18T01:12:55;8.43;;;7.70;;
11524;SDS011;5819;49.648;8.330;2022-08-18T01:15:25;7.78;;;7.10;;
11524;SDS011;5819;49.648;8.330;2022-08-18T01:17:56;8.35;;;7.63;;
11524;SDS011;5819;49.648;8.330;2022-08-18T01:20:44;8.20;;;7.50;;
11524;SDS011;5819;49.648;8.330;2022-08-18T01:23:37;7.95;;;7.15;;
11524;SDS011;5819;49.648;8.330;2022-08-18T01:26:06;9.90;;;8.23;;
11524;SDS011;5819;49.648;8.330;2022-08-18T01:28:36;9.45;;;8.60;;
11524;SDS011;5819;49.648;8.330;2022-08-18T01:31:06;9.38;;;8.48;;
11524;SDS011;5819;49.648;8.330;2022-08-18T01:33:37;8.57;;;7.85;;
11524;SDS011;5819;49.648;8.330;2022-08-18T01:36:09;8.23;;;7.38;;
11524;SDS011;5819;49.648;8.330;2022-08-18T01:38:43;7.47;;;6.78;;
11524;SDS011;5819;49.648;8.330;2022-08-18T01:41:13;8.35;;;7.55;;
11524;SDS011;5819;49.648;8.330;2022-08-18T01:43:55;8.32;;;7.45;;
11524;SDS011;5819;49.648;8.330;2022-08-18T01:46:25;10.25;;;7.00;;
11524;SDS011;5819;49.648;8.330;2022-08-18T01:48:54;8.90;;;7.13;;
11524;SDS011;5819;49.648;8.330;2022-08-18T01:51:24;7.28;;;6.57;;
11524;SDS011;5819;49.648;8.330;2022-08-18T01:54:07;7.35;;;6.43;;
11524;SDS011;5819;49.648;8.330;2022-08-18T01:56:38;7.28;;;6.40;;
11524;SDS011;5819;49.648;8.330;2022-08-18T01:59:08;8.60;;;6.47;;
11524;SDS011;5819;49.648;8.330;2022-08-18T02:01:41;9.93;;;6.70;;
11524;SDS011;5819;49.648;8.330;2022-08-18T02:04:19;9.65;;;6.65;;
11524;SDS011;5819;49.648;8.330;2022-08-18T02:07:06;7.28;;;6.57;;
11524;SDS011;5819;49.648;8.330;2022-08-18T02:09:38;7.70;;;6.90;;
11524;SDS011;5819;49.648;8.330;2022-08-18T02:12:09;6.65;;;5.93;;
11524;SDS011;5819;49.648;8.330;2022-08-18T02:14:37;6.85;;;6.22;;
11524;SDS011;5819;49.648;8.330;2022-08-18T02:17:07;6.72;;;6.15;;
11524;SDS011;5819;49.648;8.330;2022-08-18T02:19:38;7.40;;;6.80;;
11524;SDS011;5819;49.648;8.330;2022-08-18T02:22:08;7.63;;;6.05;;
11524;SDS011;5819;49.648;8.330;2022-08-18T02:24:41;9.80;;;6.97;;
11524;SDS011;5819;49.648;8.330;2022-08-18T02:27:10;7.32;;;6.60;;
11524;SDS011;5819;49.648;8.330;2022-08-18T02:29:42;7.03;;;6.43;;
11524;SDS011;5819;49.648;8.330;2022-08-18T02:32:11;7.38;;;6.50;;
11524;SDS011;5819;49.648;8.330;2022-08-18T02:34:39;6.97;;;6.38;;
11524;SDS011;5819;49.648;8.330;2022-08-18T02:37:08;7.30;;;6.60;;
11524;SDS011;5819;49.648;8.330;2022-08-18T02:39:42;7.47;;;6.70;;
11524;SDS011;5819;49.648;8.330;2022-08-18T02:42:13;8.63;;;6.25;;
11524;SDS011;5819;49.648;8.330;2022-08-18T02:44:41;7.07;;;6.38;;
11524;SDS011;5819;49.648;8.330;2022-08-18T02:47:12;7.20;;;6.57;;
11524;SDS011;5819;49.648;8.330;2022-08-18T02:49:40;7.45;;;6.65;;
11524;SDS011;5819;49.648;8.330;2022-08-18T02:52:09;7.38;;;6.65;;
11524;SDS011;5819;49.648;8.330;2022-08-18T02:54:37;7.10;;;6.28;;
11524;SDS011;5819;49.648;8.330;2022-08-18T02:57:07;8.93;;;7.03;;
11524;SDS011;5819;49.648;8.330;2022-08-18T02:59:36;7.20;;;6.50;;
11524;SDS011;5819;49.648;8.330;2022-08-18T03:02:05;6.75;;;6.03;;
11524;SDS011;5819;49.648;8.330;2022-08-18T03:04:35;7.47;;;6.75;;
11524;SDS011;5819;49.648;8.330;2022-08-18T03:07:04;8.10;;;6.32;;
11524;SDS011;5819;49.648;8.330;2022-08-18T03:09:33;10.13;;;6.53;;
11524;SDS011;5819;49.648;8.330;2022-08-18T03:12:02;7.03;;;6.35;;
11524;SDS011;5819;49.648;8.330;2022-08-18T03:14:34;6.72;;;6.15;;
11524;SDS011;5819;49.648;8.330;2022-08-18T03:17:03;7.18;;;6.47;;
11524;SDS011;5819;49.648;8.330;2022-08-18T03:19:34;6.80;;;6.20;;
11524;SDS011;5819;49.648;8.330;2022-08-18T03:22:03;7.88;;;6.15;;
11524;SDS011;5819;49.648;8.330;2022-08-18T03:24:54;7.03;;;6.43;;
11524;SDS011;5819;49.648;8.330;2022-08-18T03:27:23;7.60;;;6.80;;
11524;SDS011;5819;49.648;8.330;2022-08-18T03:29:53;7.43;;;6.25;;
11524;SDS011;5819;49.648;8.330;2022-08-18T03:32:24;6.55;;;6.05;;
11524;SDS011;5819;49.648;8.330;2022-08-18T03:34:52;8.80;;;6.95;;
11524;SDS011;5819;49.648;8.330;2022-08-18T03:37:20;7.18;;;6.55;;
11524;SDS011;5819;49.648;8.330;2022-08-18T03:39:48;6.75;;;6.05;;
11524;SDS011;5819;49.648;8.330;2022-08-18T03:42:18;6.75;;;6.15;;
11524;SDS011;5819;49.648;8.330;2022-08-18T03:44:46;7.07;;;6.47;;
11524;SDS011;5819;49.648;8.330;2022-08-18T03:47:15;9.52;;;6.28;;
11524;SDS011;5819;49.648;8.330;2022-08-18T03:49:44;6.93;;;6.32;;
11524;SDS011;5819;49.648;8.330;2022-08-18T03:52:12;7.82;;;6.82;;
11524;SDS011;5819;49.648;8.330;2022-08-18T03:54:40;7.40;;;6.55;;
11524;SDS011;5819;49.648;8.330;2022-08-18T03:57:09;6.85;;;6.25;;
11524;SDS011;5819;49.648;8.330;2022-08-18T03:59:39;7.05;;;6.45;;
11524;SDS011;5819;49.648;8.330;2022-08-18T04:02:09;6.82;;;6.13;;
11524;SDS011;5819;49.648;8.330;2022-08-18T04:04:39;7.55;;;6.47;;
11524;SDS011;5819;49.648;8.330;2022-08-18T04:07:10;7.68;;;6.90;;
11524;SDS011;5819;49.648;8.330;2022-08-18T04:09:42;8.63;;;6.18;;
11524;SDS011;5819;49.648;8.330;2022-08-18T04:12:12;7.03;;;6.43;;
11524;SDS011;5819;49.648;8.330;2022-08-18T04:14:43;7.03;;;6.32;;
11524;SDS011;5819;49.648;8.330;2022-08-18T04:17:14;7.05;;;6.35;;
11524;SDS011;5819;49.648;8.330;2022-08-18T04:19:44;7.35;;;6.65;;
11524;SDS011;5819;49.648;8.330;2022-08-18T04:22:12;6.70;;;6.10;;
11524;SDS011;5819;49.648;8.330;2022-08-18T04:24:43;7.45;;;6.68;;
11524;SDS011;5819;49.648;8.330;2022-08-18T04:27:12;7.38;;;6.50;;
11524;SDS011;5819;49.648;8.330;2022-08-18T04:29:40;7.53;;;6.90;;
11524;SDS011;5819;49.648;8.330;2022-08-18T04:32:08;7.53;;;6.82;;
11524;SDS011;5819;49.648;8.330;2022-08-18T04:34:36;7.20;;;6.60;;
11524;SDS011;5819;49.648;8.330;2022-08-18T04:37:07;8.30;;;7.03;;
11524;SDS011;5819;49.648;8.330;2022-08-18T04:39:36;7.65;;;6.40;;
11524;SDS011;5819;49.648;8.330;2022-08-18T04:42:04;7.47;;;6.78;;
11524;SDS011;5819;49.648;8.330;2022-08-18T04:44:33;7.60;;;7.00;;
11524;SDS011;5819;49.648;8.330;2022-08-18T04:47:03;8.02;;;6.90;;
11524;SDS011;5819;49.648;8.330;2022-08-18T04:49:31;8.10;;;7.07;;
11524;SDS011;5819;49.648;8.330;2022-08-18T04:52:00;8.15;;;7.30;;
11524;SDS011;5819;49.648;8.330;2022-08-18T04:55:07;7.57;;;6.88;;
11524;SDS011;5819;49.648;8.330;2022-08-18T04:57:36;11.23;;;7.25;;
11524;SDS011;5819;49.648;8.330;2022-08-18T05:00:05;7.43;;;6.65;;
11524;SDS011;5819;49.648;8.330;2022-08-18T05:02:34;7.57;;;6.80;;
11524;SDS011;5819;49.648;8.330;2022-08-18T05:05:02;7.88;;;7.00;;
11524;SDS011;5819;49.648;8.330;2022-08-18T05:07:31;7.88;;;7.10;;
11524;SDS011;5819;49.648;8.330;2022-08-18T05:09:59;8.52;;;7.80;;
11524;SDS011;5819;49.648;8.330;2022-08-18T05:12:29;7.57;;;6.97;;
11524;SDS011;5819;49.648;8.330;2022-08-18T05:14:57;7.88;;;7.07;;
11524;SDS011;5819;49.648;8.330;2022-08-18T05:17:25;8.05;;;7.32;;
11524;SDS011;5819;49.648;8.330;2022-08-18T05:19:57;8.38;;;7.15;;
11524;SDS011;5819;49.648;8.330;2022-08-18T05:22:28;8.27;;;7.47;;
11524;SDS011;5819;49.648;8.330;2022-08-18T05:24:57;8.48;;;7.00;;
11524;SDS011;5819;49.648;8.330;2022-08-18T05:27:31;8.40;;;7.35;;
11524;SDS011;5819;49.648;8.330;2022-08-18T05:30:00;8.25;;;7.18;;
11524;SDS011;5819;49.648;8.330;2022-08-18T05:32:31;8.45;;;7.60;;
11524;SDS011;5819;49.648;8.330;2022-08-18T05:35:16;9.68;;;7.95;;
11524;SDS011;5819;49.648;8.330;2022-08-18T05:40:57;8.32;;;7.50;;
11524;SDS011;5819;49.648;8.330;2022-08-18T05:43:41;8.45;;;7.63;;
11524;SDS011;5819;49.648;8.330;2022-08-18T05:46:18;10.00;;;7.82;;
11524;SDS011;5819;49.648;8.330;2022-08-18T05:48:48;10.82;;;8.07;;
11524;SDS011;5819;49.648;8.330;2022-08-18T05:51:18;8.00;;;7.20;;
11524;SDS011;5819;49.648;8.330;2022-08-18T05:53:53;9.55;;;7.25;;
11524;SDS011;5819;49.648;8.330;2022-08-18T05:56:40;9.05;;;7.50;;
11524;SDS011;5819;49.648;8.330;2022-08-18T05:59:20;7.75;;;7.05;;
11524;SDS011;5819;49.648;8.330;2022-08-18T06:01:54;8.10;;;7.40;;
11524;SDS011;5819;49.648;8.330;2022-08-18T06:04:28;9.73;;;8.23;;
11524;SDS011;5819;49.648;8.330;2022-08-18T06:07:06;8.77;;;7.35;;
11524;SDS011;5819;49.648;8.330;2022-08-18T06:09:39;8.93;;;7.95;;
11524;SDS011;5819;49.648;8.330;2022-08-18T06:12:17;8.60;;;7.80;;
11524;SDS011;5819;49.648;8.330;2022-08-18T06:14:52;9.63;;;8.35;;
11524;SDS011;5819;49.648;8.330;2022-08-18T06:17:42;8.43;;;7.63;;
11524;SDS011;5819;49.648;8.330;2022-08-18T06:20:29;8.48;;;7.78;;
11524;SDS011;5819;49.648;8.330;2022-08-18T06:23:07;10.70;;;9.75;;
11524;SDS011;5819;49.648;8.330;2022-08-18T06:25:48;12.07;;;11.05;;
11524;SDS011;5819;49.648;8.330;2022-08-18T06:28:26;12.48;;;11.20;;
11524;SDS011;5819;49.648;8.330;2022-08-18T06:31:08;13.98;;;12.70;;
11524;SDS011;5819;49.648;8.330;2022-08-18T06:33:44;12.98;;;11.18;;
11524;SDS011;5819;49.648;8.330;2022-08-18T06:36:26;13.80;;;12.65;;
11524;SDS011;5819;49.648;8.330;2022-08-18T06:39:04;14.98;;;13.57;;
11524;SDS011;5819;49.648;8.330;2022-08-18T06:41:43;14.30;;;13.13;;
11524;SDS011;5819;49.648;8.330;2022-08-18T06:44:19;13.45;;;12.35;;
11524;SDS011;5819;49.648;8.330;2022-08-18T06:46:53;15.30;;;13.90;;
11524;SDS011;5819;49.648;8.330;2022-08-18T06:49:28;14.25;;;12.95;;
11524;SDS011;5819;49.648;8.330;2022-08-18T06:52:24;16.52;;;14.82;;
11524;SDS011;5819;49.648;8.330;2022-08-18T06:54:57;16.58;;;15.07;;
11524;SDS011;5819;49.648;8.330;2022-08-18T06:57:28;18.77;;;16.55;;
11524;SDS011;5819;49.648;8.330;2022-08-18T07:00:00;17.90;;;16.30;;
11524;SDS011;5819;49.648;8.330;2022-08-18T07:02:46;18.10;;;16.48;;
11524;SDS011;5819;49.648;8.330;2022-08-18T07:05:19;18.00;;;16.38;;
11524;SDS011;5819;49.648;8.330;2022-08-18T07:08:03;19.02;;;17.17;;
11524;SDS011;5819;49.648;8.330;2022-08-18T07:10:44;19.08;;;17.38;;
11524;SDS011;5819;49.648;8.330;2022-08-18T07:13:15;19.95;;;18.10;;
11524;SDS011;5819;49.648;8.330;2022-08-18T07:15:49;20.73;;;18.83;;
11524;SDS011;5819;49.648;8.330;2022-08-18T07:18:23;17.70;;;16.00;;
11524;SDS011;5819;49.648;8.330;2022-08-18T07:20:57;17.40;;;15.73;;
11524;SDS011;5819;49.648;8.330;2022-08-18T07:23:28;18.70;;;16.88;;
11524;SDS011;5819;49.648;8.330;2022-08-18T07:26:02;19.98;;;18.27;;
11524;SDS011;5819;49.648;8.330;2022-08-18T07:28:35;18.88;;;17.27;;
11524;SDS011;5819;49.648;8.330;2022-08-18T07:31:13;20.17;;;18.27;;
11524;SDS011;5819;49.648;8.330;2022-08-18T07:33:49;19.73;;;17.80;;
11524;SDS011;5819;49.648;8.330;2022-08-18T07:36:22;19.50;;;17.60;;
11524;SDS011;5819;49.648;8.330;2022-08-18T07:38:55;21.02;;;18.98;;
11524;SDS011;5819;49.648;8.330;2022-08-18T07:41:31;21.30;;;19.27;;
11524;SDS011;5819;49.648;8.330;2022-08-18T07:44:05;21.33;;;19.42;;
11524;SDS011;5819;49.648;8.330;2022-08-18T07:46:43;21.40;;;19.40;;
11524;SDS011;5819;49.648;8.330;2022-08-18T07:49:19;21.50;;;19.42;;
11524;SDS011;5819;49.648;8.330;2022-08-18T07:51:52;22.55;;;20.48;;
11524;SDS011;5819;49.648;8.330;2022-08-18T07:54:31;20.02;;;18.10;;
11524;SDS011;5819;49.648;8.330;2022-08-18T07:57:20;21.75;;;19.83;;
11524;SDS011;5819;49.648;8.330;2022-08-18T07:59:56;21.67;;;19.65;;
11524;SDS011;5819;49.648;8.330;2022-08-18T08:02:50;22.13;;;20.08;;
11524;SDS011;5819;49.648;8.330;2022-08-18T08:05:34;22.17;;;20.08;;
11524;SDS011;5819;49.648;8.330;2022-08-18T08:08:11;21.25;;;19.15;;
11524;SDS011;5819;49.648;8.330;2022-08-18T08:10:54;22.25;;;20.30;;
11524;SDS011;5819;49.648;8.330;2022-08-18T08:13:34;22.63;;;20.50;;
11524;SDS011;5819;49.648;8.330;2022-08-18T08:16:25;19.98;;;18.08;;
11524;SDS011;5819;49.648;8.330;2022-08-18T08:19:04;18.50;;;16.80;;
11524;SDS011;5819;49.648;8.330;2022-08-18T08:21:45;19.88;;;18.17;;
11524;SDS011;5819;49.648;8.330;2022-08-18T08:24:21;19.58;;;17.70;;
11524;SDS011;5819;49.648;8.330;2022-08-18T08:26:54;19.27;;;17.55;;
11524;SDS011;5819;49.648;8.330;2022-08-18T08:29:37;19.17;;;17.30;;
11524;SDS011;5819;49.648;8.330;2022-08-18T08:32:14;16.70;;;15.13;;
11524;SDS011;5819;49.648;8.330;2022-08-18T08:34:51;17.02;;;15.52;;
11524;SDS011;5819;49.648;8.330;2022-08-18T08:37:26;17.38;;;15.68;;
11524;SDS011;5819;49.648;8.330;2022-08-18T08:40:04;18.63;;;16.90;;
11524;SDS011;5819;49.648;8.330;2022-08-18T08:42:37;18.75;;;16.70;;
11524;SDS011;5819;49.648;8.330;2022-08-18T08:45:12;18.95;;;17.13;;
11524;SDS011;5819;49.648;8.330;2022-08-18T08:47:47;18.20;;;16.42;;
11524;SDS011;5819;49.648;8.330;2022-08-18T08:50:35;21.25;;;19.15;;
11524;SDS011;5819;49.648;8.330;2022-08-18T08:53:11;19.45;;;17.75;;
11524;SDS011;5819;49.648;8.330;2022-08-18T08:55:48;20.00;;;18.30;;
11524;SDS011;5819;49.648;8.330;2022-08-18T08:58:28;19.88;;;18.17;;
11524;SDS011;5819;49.648;8.330;2022-08-18T09:01:02;20.23;;;17.80;;
11524;SDS011;5819;49.648;8.330;2022-08-18T09:03:34;23.00;;;18.33;;
11524;SDS011;5819;49.648;8.330;2022-08-18T09:06:15;18.42;;;16.45;;
11524;SDS011;5819;49.648;8.330;2022-08-18T09:08:56;19.65;;;17.85;;
11524;SDS011;5819;49.648;8.330;2022-08-18T09:11:53;18.45;;;16.85;;
11524;SDS011;5819;49.648;8.330;2022-08-18T09:14:44;20.88;;;19.10;;
11524;SDS011;5819;49.648;8.330;2022-08-18T09:17:32;22.52;;;20.40;;
11524;SDS011;5819;49.648;8.330;2022-08-18T09:20:29;21.00;;;19.08;;
11524;SDS011;5819;49.648;8.330;2022-08-18T09:23:16;19.30;;;17.50;;
11524;SDS011;5819;49.648;8.330;2022-08-18T09:25:49;18.85;;;17.05;;
11524;SDS011;5819;49.648;8.330;2022-08-18T09:28:20;18.90;;;17.30;;
11524;SDS011;5819;49.648;8.330;2022-08-18T09:30:52;19.25;;;17.42;;
11524;SDS011;5819;49.648;8.330;2022-08-18T09:33:45;17.73;;;16.17;;
11524;SDS011;5819;49.648;8.330;2022-08-18T09:36:38;18.58;;;16.92;;
11524;SDS011;5819;49.648;8.330;2022-08-18T09:39:20;18.88;;;17.27;;
11524;SDS011;5819;49.648;8.330;2022-08-18T09:42:28;19.90;;;18.00;;
11524;SDS011;5819;49.648;8.330;2022-08-18T09:48:21;18.27;;;16.38;;
11524;SDS011;5819;49.648;8.330;2022-08-18T09:54:07;18.17;;;16.58;;
11524;SDS011;5819;49.648;8.330;2022-08-18T09:57:13;18.65;;;17.05;;
11524;SDS011;5819;49.648;8.330;2022-08-18T09:59:56;20.55;;;18.70;;
11524;SDS011;5819;49.648;8.330;2022-08-18T10:05:56;21.63;;;19.80;;
11524;SDS011;5819;49.648;8.330;2022-08-18T10:12:10;22.88;;;20.88;;
11524;SDS011;5819;49.648;8.330;2022-08-18T10:15:11;23.35;;;21.30;;
11524;SDS011;5819;49.648;8.330;2022-08-18T10:21:12;24.40;;;22.33;;
11524;SDS011;5819;49.648;8.330;2022-08-18T10:23:51;24.05;;;21.98;;
11524;SDS011;5819;49.648;8.330;2022-08-18T10:29:42;22.70;;;20.75;;
11524;SDS011;5819;49.648;8.330;2022-08-18T10:32:23;22.45;;;20.33;;
11524;SDS011;5819;49.648;8.330;2022-08-18T10:38:20;22.13;;;20.02;;
11524;SDS011;5819;49.648;8.330;2022-08-18T10:40:59;23.67;;;21.58;;
11524;SDS011;5819;49.648;8.330;2022-08-18T10:43:41;24.35;;;21.85;;
11524;SDS011;5819;49.648;8.330;2022-08-18T10:46:24;22.52;;;20.63;;
11524;SDS011;5819;49.648;8.330;2022-08-18T10:49:02;23.58;;;21.27;;
11524;SDS011;5819;49.648;8.330;2022-08-18T10:58:20;22.58;;;20.52;;
11524;SDS011;5819;49.648;8.330;2022-08-18T11:01:01;22.60;;;20.50;;
11524;SDS011;5819;49.648;8.330;2022-08-18T11:03:44;24.90;;;22.70;;
11524;SDS011;5819;49.648;8.330;2022-08-18T11:06:59;23.33;;;21.25;;
11524;SDS011;5819;49.648;8.330;2022-08-18T11:09:33;24.48;;;22.40;;
11524;SDS011;5819;49.648;8.330;2022-08-18T11:12:07;23.88;;;21.88;;
11524;SDS011;5819;49.648;8.330;2022-08-18T11:14:55;21.80;;;19.90;;
11524;SDS011;5819;49.648;8.330;2022-08-18T11:17:59;21.33;;;19.42;;
11524;SDS011;5819;49.648;8.330;2022-08-18T11:20:36;19.42;;;17.83;;
11524;SDS011;5819;49.648;8.330;2022-08-18T11:23:15;17.25;;;15.70;;
11524;SDS011;5819;49.648;8.330;2022-08-18T11:25:43;18.42;;;16.67;;
11524;SDS011;5819;49.648;8.330;2022-08-18T11:28:15;19.27;;;17.48;;
11524;SDS011;5819;49.648;8.330;2022-08-18T11:30:44;17.88;;;16.13;;
11524;SDS011;5819;49.648;8.330;2022-08-18T11:33:18;17.48;;;15.85;;
11524;SDS011;5819;49.648;8.330;2022-08-18T11:35:51;19.35;;;17.65;;
11524;SDS011;5819;49.648;8.330;2022-08-18T11:38:25;17.65;;;16.13;;
11524;SDS011;5819;49.648;8.330;2022-08-18T11:41:09;19.35;;;17.38;;
11524;SDS011;5819;49.648;8.330;2022-08-18T11:43:43;20.63;;;18.73;;
11524;SDS011;5819;49.648;8.330;2022-08-18T11:46:35;20.65;;;18.75;;
11524;SDS011;5819;49.648;8.330;2022-08-18T11:49:13;20.25;;;18.25;;
11524;SDS011;5819;49.648;8.330;2022-08-18T11:51:54;23.27;;;21.00;;
11524;SDS011;5819;49.648;8.330;2022-08-18T11:54:47;26.73;;;24.33;;
11524;SDS011;5819;49.648;8.330;2022-08-18T11:57:37;24.35;;;22.23;;
11524;SDS011;5819;49.648;8.330;2022-08-18T12:00:38;24.23;;;21.92;;
11524;SDS011;5819;49.648;8.330;2022-08-18T12:03:12;25.02;;;22.50;;
11524;SDS011;5819;49.648;8.330;2022-08-18T12:05:47;25.08;;;22.73;;
11524;SDS011;5819;49.648;8.330;2022-08-18T12:08:47;25.88;;;23.58;;
11524;SDS011;5819;49.648;8.330;2022-08-18T12:11:26;23.80;;;21.48;;
11524;SDS011;5819;49.648;8.330;2022-08-18T12:14:01;23.73;;;21.48;;
11524;SDS011;5819;49.648;8.330;2022-08-18T12:16:52;22.20;;;20.08;;
11524;SDS011;5819;49.648;8.330;2022-08-18T12:19:22;23.23;;;21.15;;
11524;SDS011;5819;49.648;8.330;2022-08-18T12:21:54;24.52;;;22.27;;
11524;SDS011;5819;49.648;8.330;2022-08-18T12:24:25;24.10;;;21.92;;
11524;SDS011;5819;49.648;8.330;2022-08-18T12:27:04;24.85;;;22.35;;
11524;SDS011;5819;49.648;8.330;2022-08-18T12:29:47;33.92;;;30.65;;
11524;SDS011;5819;49.648;8.330;2022-08-18T12:32:16;32.08;;;29.15;;
11524;SDS011;5819;49.648;8.330;2022-08-18T12:35:05;32.35;;;29.45;;
11524;SDS011;5819;49.648;8.330;2022-08-18T12:37:35;29.77;;;26.88;;
11524;SDS011;5819;49.648;8.330;2022-08-18T12:40:24;32.60;;;29.50;;
11524;SDS011;5819;49.648;8.330;2022-08-18T12:42:54;32.92;;;29.90;;
11524;SDS011;5819;49.648;8.330;2022-08-18T12:45:23;31.92;;;29.05;;
11524;SDS011;5819;49.648;8.330;2022-08-18T12:47:52;30.33;;;27.40;;
11524;SDS011;5819;49.648;8.330;2022-08-18T12:50:21;29.67;;;26.92;;
11524;SDS011;5819;49.648;8.330;2022-08-18T12:53:00;32.03;;;28.92;;
11524;SDS011;5819;49.648;8.330;2022-08-18T12:55:28;33.83;;;30.42;;
11524;SDS011;5819;49.648;8.330;2022-08-18T12:58:01;27.85;;;25.40;;
11524;SDS011;5819;49.648;8.330;2022-08-18T13:00:31;27.95;;;25.42;;
11524;SDS011;5819;49.648;8.330;2022-08-18T13:03:01;24.45;;;22.25;;
11524;SDS011;5819;49.648;8.330;2022-08-18T13:05:30;22.50;;;20.60;;
11524;SDS011;5819;49.648;8.330;2022-08-18T13:07:59;24.95;;;22.58;;
11524;SDS011;5819;49.648;8.330;2022-08-18T13:10:30;25.00;;;22.80;;
11524;SDS011;5819;49.648;8.330;2022-08-18T13:13:13;27.45;;;25.05;;
11524;SDS011;5819;49.648;8.330;2022-08-18T13:15:42;27.48;;;24.92;;
11524;SDS011;5819;49.648;8.330;2022-08-18T13:18:24;31.13;;;28.00;;
11524;SDS011;5819;49.648;8.330;2022-08-18T13:20:54;27.00;;;24.55;;
11524;SDS011;5819;49.648;8.330;2022-08-18T13:23:24;26.80;;;24.30;;
11524;SDS011;5819;49.648;8.330;2022-08-18T13:25:54;25.27;;;22.88;;
11524;SDS011;5819;49.648;8.330;2022-08-18T13:28:29;23.38;;;21.13;;
11524;SDS011;5819;49.648;8.330;2022-08-18T13:31:15;23.40;;;21.20;;
11524;SDS011;5819;49.648;8.330;2022-08-18T13:33:43;22.38;;;20.17;;
11524;SDS011;5819;49.648;8.330;2022-08-18T13:36:26;22.42;;;20.25;;
11524;SDS011;5819;49.648;8.330;2022-08-18T13:39:11;23.30;;;21.40;;
11524;SDS011;5819;49.648;8.330;2022-08-18T13:41:40;23.17;;;20.88;;
11524;SDS011;5819;49.648;8.330;2022-08-18T13:44:12;21.17;;;19.25;;
11524;SDS011;5819;49.648;8.330;2022-08-18T13:46:45;19.25;;;17.25;;
11524;SDS011;5819;49.648;8.330;2022-08-18T13:49:16;18.33;;;16.63;;
11524;SDS011;5819;49.648;8.330;2022-08-18T13:51:55;20.83;;;18.92;;
11524;SDS011;5819;49.648;8.330;2022-08-18T13:54:26;18.88;;;17.17;;
11524;SDS011;5819;49.648;8.330;2022-08-18T13:57:01;17.75;;;16.25;;
11524;SDS011;5819;49.648;8.330;2022-08-18T13:59:33;16.05;;;14.65;;
11524;SDS011;5819;49.648;8.330;2022-08-18T14:02:11;19.52;;;17.58;;
11524;SDS011;5819;49.648;8.330;2022-08-18T14:04:40;16.52;;;14.88;;
11524;SDS011;5819;49.648;8.330;2022-08-18T14:07:09;17.27;;;15.75;;
11524;SDS011;5819;49.648;8.330;2022-08-18T14:09:44;16.77;;;15.38;;
11524;SDS011;5819;49.648;8.330;2022-08-18T14:12:20;16.00;;;14.45;;
11524;SDS011;5819;49.648;8.330;2022-08-18T14:14:59;17.90;;;16.08;;
11524;SDS011;5819;49.648;8.330;2022-08-18T14:17:28;15.00;;;13.63;;
11524;SDS011;5819;49.648;8.330;2022-08-18T14:19:56;15.93;;;14.07;;
11524;SDS011;5819;49.648;8.330;2022-08-18T14:22:53;13.45;;;12.25;;
11524;SDS011;5819;49.648;8.330;2022-08-18T14:25:53;13.02;;;11.90;;
11524;SDS011;5819;49.648;8.330;2022-08-18T14:28:38;11.57;;;10.50;;
11524;SDS011;5819;49.648;8.330;2022-08-18T14:31:08;12.25;;;11.25;;
11524;SDS011;5819;49.648;8.330;2022-08-18T14:33:42;10.68;;;9.70;;
11524;SDS011;5819;49.648;8.330;2022-08-18T14:36:19;12.38;;;11.27;;
11524;SDS011;5819;49.648;8.330;2022-08-18T14:38:56;12.00;;;11.00;;
11524;SDS011;5819;49.648;8.330;2022-08-18T14:41:25;12.98;;;11.55;;
11524;SDS011;5819;49.648;8.330;2022-08-18T14:43:54;12.18;;;10.82;;
11524;SDS011;5819;49.648;8.330;2022-08-18T14:46:41;12.20;;;11.13;;
11524;SDS011;5819;49.648;8.330;2022-08-18T14:49:19;12.38;;;11.32;;
11524;SDS011;5819;49.648;8.330;2022-08-18T14:51:55;13.18;;;12.10;;
11524;SDS011;5819;49.648;8.330;2022-08-18T14:54:24;11.57;;;10.57;;
11524;SDS011;5819;49.648;8.330;2022-08-18T14:56:55;11.98;;;10.85;;
11524;SDS011;5819;49.648;8.330;2022-08-18T14:59:25;12.95;;;11.75;;
11524;SDS011;5819;49.648;8.330;2022-08-18T15:01:56;13.27;;;12.07;;
11524;SDS011;5819;49.648;8.330;2022-08-18T15:04:24;12.63;;;11.63;;
11524;SDS011;5819;49.648;8.330;2022-08-18T15:06:53;12.15;;;11.10;;
11524;SDS011;5819;49.648;8.330;2022-08-18T15:09:23;12.15;;;11.15;;
11524;SDS011;5819;49.648;8.330;2022-08-18T15:11:53;13.25;;;12.15;;
11524;SDS011;5819;49.648;8.330;2022-08-18T15:14:23;12.60;;;11.20;;
11524;SDS011;5819;49.648;8.330;2022-08-18T15:17:01;12.68;;;11.57;;
11524;SDS011;5819;49.648;8.330;2022-08-18T15:19:40;12.10;;;11.10;;
11524;SDS011;5819;49.648;8.330;2022-08-18T15:22:26;12.07;;;11.07;;
11524;SDS011;5819;49.648;8.330;2022-08-18T15:25:13;12.30;;;11.02;;
11524;SDS011;5819;49.648;8.330;2022-08-18T15:27:59;11.63;;;10.65;;
11524;SDS011;5819;49.648;8.330;2022-08-18T15:30:27;12.20;;;10.68;;
11524;SDS011;5819;49.648;8.330;2022-08-18T15:32:59;11.50;;;10.45;;
11524;SDS011;5819;49.648;8.330;2022-08-18T15:35:28;10.45;;;9.57;;
11524;SDS011;5819;49.648;8.330;2022-08-18T15:37:57;10.52;;;9.63;;
11524;SDS011;5819;49.648;8.330;2022-08-18T15:40:30;10.90;;;9.90;;
11524;SDS011;5819;49.648;8.330;2022-08-18T15:43:08;10.88;;;9.95;;
11524;SDS011;5819;49.648;8.330;2022-08-18T15:45:43;10.82;;;9.93;;
11524;SDS011;5819;49.648;8.330;2022-08-18T15:48:24;11.00;;;9.98;;
11524;SDS011;5819;49.648;8.330;2022-08-18T15:50:53;53.30;;;48.13;;
11524;SDS011;5819;49.648;8.330;2022-08-18T15:53:38;20.75;;;18.63;;
11524;SDS011;5819;49.648;8.330;2022-08-18T15:56:12;9.40;;;8.70;;
11524;SDS011;5819;49.648;8.330;2022-08-18T15:58:46;8.68;;;7.97;;
11524;SDS011;5819;49.648;8.330;2022-08-18T16:01:16;8.77;;;7.97;;
11524;SDS011;5819;49.648;8.330;2022-08-18T16:03:59;9.20;;;8.50;;
11524;SDS011;5819;49.648;8.330;2022-08-18T16:06:30;8.95;;;8.15;;
11524;SDS011;5819;49.648;8.330;2022-08-18T16:09:01;8.48;;;7.70;;